Time;durP1;ratioP1;P1;durP2;ratioP2;P2;SDS_P1;SDS_P2;PMS_P1;PMS_P2;Temp;Humidity;BMP_temperature;BMP_pressure;BME280_temperature;BME280_humidity;BME280_pressure;Samples;Min_cycle;Max_cycle;Signal;HPM_P1;HPM_P2
2022/09/01 00:01:19;;;;;;;12.20;5.30;;;;;;;21.65;54.62;99031.21;31265;1319;3026082;-60
2022/09/01 00:03:51;;;;;;;9.50;5.60;;;;;;;21.79;54.03;99036.13;24890;1320;3055480;-61
2022/09/01 00:06:22;;;;;;;10.70;5.30;;;;;;;21.81;54.35;99036.71;24906;1322;3026611;-62
2022/09/01 00:08:54;;;;;;;10.40;5.00;;;;;;;21.58;55.44;99041.11;24991;1319;3026792;-63
2022/09/01 00:11:24;;;;;;;9.80;4.80;;;;;;;21.47;55.71;99043.16;24996;1319;3027425;-58
2022/09/01 00:13:55;;;;;;;11.70;4.80;;;;;;;21.22;56.70;99045.14;24286;1316;4491187;-62
2022/09/01 00:16:24;;;;;;;12.90;4.80;;;;;;;21.08;57.06;99044.05;25021;1315;3026650;-62
2022/09/01 00:18:53;;;;;;;8.50;4.90;;;;;;;20.96;57.48;99045.34;25145;1315;3026345;-61
2022/09/01 00:21:25;;;;;;;7.30;4.80;;;;;;;20.88;57.76;99048.52;25045;1315;3055143;-60
2022/09/01 00:23:54;;;;;;;8.80;5.30;;;;;;;20.81;57.94;99049.17;25053;1316;3026570;-61
2022/09/01 00:26:23;;;;;;;9.50;4.50;;;;;;;20.74;57.95;99049.16;25070;1315;3026712;-59
2022/09/01 00:28:54;;;;;;;6.90;4.70;;;;;;;20.66;58.03;99043.55;25085;1316;3052437;-60
2022/09/01 00:31:23;;;;;;;12.10;5.20;;;;;;;20.58;58.02;99045.51;25041;1315;3026514;-59
2022/09/01 00:33:52;;;;;;;7.40;4.30;;;;;;;20.54;58.34;99043.71;25051;1316;3051916;-63
2022/09/01 00:36:21;;;;;;;12.70;4.80;;;;;;;20.56;58.24;99046.42;25061;1316;3026555;-60
2022/09/01 00:38:50;;;;;;;9.10;4.50;;;;;;;20.55;58.42;99044.81;24988;1315;3057134;-61
2022/09/01 00:41:22;;;;;;;11.90;5.20;;;;;;;20.48;58.59;99041.10;25068;1314;3026465;-60
2022/09/01 00:43:56;;;;;;;10.40;5.40;;;;;;;20.45;58.65;99041.57;25110;1316;3026626;-60
2022/09/01 00:46:28;;;;;;;11.20;5.10;;;;;;;20.40;59.22;99040.98;25119;1316;3050772;-60
2022/09/01 00:49:04;;;;;;;10.10;4.70;;;;;;;20.35;59.47;99034.52;25073;1316;3026212;-60
2022/09/01 00:51:35;;;;;;;11.70;5.30;;;;;;;20.27;59.93;99038.17;25064;1316;3049238;-62
2022/09/01 00:54:05;;;;;;;9.20;5.20;;;;;;;20.26;60.07;99033.53;25110;1316;3025993;-61
2022/09/01 00:56:34;;;;;;;9.60;5.60;;;;;;;20.20;60.12;99029.49;25057;1316;3027444;-60
2022/09/01 00:59:05;;;;;;;9.60;5.50;;;;;;;20.14;60.48;99026.97;25081;1315;3026923;-57
2022/09/01 01:01:35;;;;;;;11.70;5.60;;;;;;;20.11;60.88;99032.25;25032;1316;3053013;-61
2022/09/01 04:20:22;;;;;;;11.30;4.90;;;;;;;19.28;68.50;99073.10;24912;1320;3054779;-61
2022/09/01 04:22:52;;;;;;;11.20;4.60;;;;;;;19.95;63.82;99069.73;25003;1319;3026573;-61
2022/09/01 04:25:24;;;;;;;8.50;4.40;;;;;;;20.06;63.39;99069.86;24926;1322;3028238;-61
2022/09/01 04:27:57;;;;;;;7.50;4.00;;;;;;;20.03;63.14;99074.38;25033;1319;3055097;-60
2022/09/01 04:30:30;;;;;;;7.50;4.00;;;;;;;19.96;63.31;99077.80;24271;1319;3040126;-60
2022/09/01 04:33:00;;;;;;;8.80;5.60;;;;;;;19.92;63.58;99076.62;25067;1316;3047854;-60
2022/09/01 04:35:31;;;;;;;12.60;5.70;;;;;;;20.02;62.98;99078.19;25114;1316;3025950;-61
2022/09/01 04:38:01;;;;;;;13.30;4.80;;;;;;;19.86;63.33;99081.72;25004;1319;3026399;-59
2022/09/01 04:40:31;;;;;;;15.70;4.30;;;;;;;19.70;63.96;99079.42;25077;1319;3026378;-61
2022/09/01 04:43:00;;;;;;;14.40;4.90;;;;;;;19.63;64.07;99082.22;24997;1319;3026438;-61
2022/09/01 04:45:30;;;;;;;10.10;4.50;;;;;;;19.50;64.25;99086.45;25049;1319;3027010;-60
2022/09/01 04:48:04;;;;;;;7.70;4.30;;;;;;;19.44;64.66;99079.05;24984;1319;3026618;-59
2022/09/01 04:50:34;;;;;;;7.50;4.30;;;;;;;19.49;64.75;99080.77;25089;1316;3026130;-60
2022/09/01 04:53:37;;;;;;;11.60;4.60;;;;;;;19.48;64.62;99077.68;24998;1316;3049844;-59
2022/09/01 04:56:06;;;;;;;9.50;3.70;;;;;;;19.41;64.87;99070.75;25037;1319;3026690;-60
2022/09/01 04:58:38;;;;;;;9.80;3.60;;;;;;;20.08;63.79;99066.52;25050;1316;3026610;-57
2022/09/01 05:01:19;;;;;;;10.70;4.50;;;;;;;20.62;61.69;99064.15;25086;1316;3026957;-61
2022/09/01 05:04:00;;;;;;;9.60;4.20;;;;;;;20.60;61.23;99063.48;25014;1317;3049618;-61
2022/09/01 05:06:40;;;;;;;15.00;4.80;;;;;;;20.58;61.07;99063.35;25071;1316;3053314;-61
2022/09/01 05:09:10;;;;;;;9.50;4.70;;;;;;;20.43;61.52;99064.92;25111;1316;3026571;-60
2022/09/01 05:11:53;;;;;;;11.40;5.10;;;;;;;20.40;61.62;99071.31;25133;1316;3071657;-58
2022/09/01 05:14:25;;;;;;;8.80;4.70;;;;;;;20.14;62.43;99068.93;25081;1316;3026011;-59
2022/09/01 05:16:57;;;;;;;12.90;4.80;;;;;;;20.15;62.32;99067.58;25113;1316;3028369;-60
2022/09/01 05:19:29;;;;;;;10.90;5.10;;;;;;;20.18;62.34;99067.64;25120;1316;3027385;-60
2022/09/01 05:22:01;;;;;;;9.80;5.20;;;;;;;20.13;62.73;99065.20;25131;1316;3057524;-61
2022/09/01 05:24:33;;;;;;;10.90;5.40;;;;;;;20.08;62.54;99068.48;25062;1316;3026868;-60
2022/09/01 05:27:06;;;;;;;;;;;;;;;20.08;62.54;99073.83;25126;1316;3053737;-61
2022/09/01 05:29:39;;;;;;;13.50;4.70;;;;;;;19.96;63.07;99072.42;25085;1316;3026861;-60
2022/09/01 05:32:11;;;;;;;9.30;4.60;;;;;;;19.98;62.89;99061.21;25096;1313;3027385;-62
2022/09/01 05:34:44;;;;;;;11.10;5.30;;;;;;;20.01;62.80;99066.98;25081;1313;3027412;-59
2022/09/01 05:37:13;;;;;;;11.50;5.30;;;;;;;20.00;63.09;99065.34;25086;1313;3026475;-62
2022/09/01 05:39:43;;;;;;;14.50;5.40;;;;;;;20.03;63.26;99066.95;25065;1310;3026251;-59
2022/09/01 05:42:12;;;;;;;12.20;5.00;;;;;;;20.00;63.30;99070.25;25094;1313;3026530;-64
2022/09/01 05:44:42;;;;;;;12.40;5.70;;;;;;;20.06;63.29;99073.23;25125;1313;3052074;-62
2022/09/01 05:47:14;;;;;;;10.80;4.90;;;;;;;20.05;63.38;99075.98;25051;1313;3027411;-60
2022/09/01 05:49:43;;;;;;;9.80;4.40;;;;;;;19.97;63.60;99079.48;25113;1313;3026527;-64
2022/09/01 05:52:13;;;;;;;11.00;4.30;;;;;;;19.94;64.13;99079.09;25051;1313;3027145;-62
2022/09/01 05:54:42;;;;;;;10.50;5.40;;;;;;;20.00;63.92;99073.30;25057;1313;3026816;-64
2022/09/01 05:57:12;;;;;;;9.20;5.50;;;;;;;19.92;63.93;99076.09;25095;1316;3027197;-62
2022/09/01 05:59:41;;;;;;;10.40;4.10;;;;;;;19.97;63.99;99074.80;25060;1316;3027049;-63
2022/09/01 06:02:14;;;;;;;11.40;4.70;;;;;;;20.16;63.49;99076.75;25065;1313;3027505;-60
2022/09/01 06:04:44;;;;;;;9.80;4.80;;;;;;;20.28;63.07;99082.75;25046;1313;3026185;-63
2022/09/01 06:07:17;;;;;;;13.40;5.00;;;;;;;20.33;62.79;99086.89;25101;1313;3027254;-62
2022/09/01 06:09:52;;;;;;;11.60;4.50;;;;;;;20.43;62.40;99084.33;25076;1313;3059173;-61
2022/09/01 06:12:27;;;;;;;10.20;4.50;;;;;;;20.57;61.99;99088.45;25050;1313;3052474;-63
2022/09/01 06:14:57;;;;;;;7.00;4.80;;;;;;;20.73;61.61;99085.88;25044;1313;3027254;-58
2022/09/01 06:17:28;;;;;;;9.80;4.50;;;;;;;20.87;61.32;99092.63;25078;1313;3026628;-61
2022/09/01 06:20:02;;;;;;;9.80;5.10;;;;;;;21.01;60.76;99093.00;25081;1312;3028184;-64
2022/09/01 06:22:39;;;;;;;9.40;4.70;;;;;;;21.13;60.43;99101.52;25136;1313;3048985;-60
2022/09/01 06:25:09;;;;;;;7.90;4.90;;;;;;;21.21;60.00;99104.70;25040;1313;3027045;-62
2022/09/01 06:27:43;;;;;;;11.40;4.60;;;;;;;21.26;59.73;99100.42;25162;1313;3026325;-60
2022/09/01 06:30:15;;;;;;;12.00;4.60;;;;;;;21.43;59.12;99106.38;25049;1313;3028222;-62
2022/09/01 06:32:48;;;;;;;13.90;5.00;;;;;;;21.60;58.38;99102.58;25060;1313;3054432;-62
2022/09/01 06:35:18;;;;;;;9.50;4.50;;;;;;;21.75;58.36;99096.23;25153;1313;3028453;-63
2022/09/01 06:37:47;;;;;;;12.50;4.60;;;;;;;21.78;58.31;99096.25;25075;1313;3056920;-59
2022/09/01 06:40:31;;;;;;;8.30;4.50;;;;;;;21.96;57.48;99103.35;25044;1316;3051911;-61
2022/09/01 06:43:01;;;;;;;7.60;3.80;;;;;;;22.09;57.29;99098.88;25086;1313;3026494;-62
2022/09/01 06:45:31;;;;;;;12.30;4.50;;;;;;;22.17;56.63;99097.13;25150;1313;3029866;-63
2022/09/01 06:48:01;;;;;;;9.80;4.80;;;;;;;22.30;56.33;99102.32;25028;1313;3026724;-64
2022/09/01 06:50:29;;;;;;;19.20;4.80;;;;;;;22.47;55.78;99109.14;25047;1313;3027045;-64
2022/09/01 06:53:09;;;;;;;10.20;5.20;;;;;;;22.50;55.51;99105.13;25046;1316;3053043;-62
2022/09/01 06:55:39;;;;;;;15.20;5.70;;;;;;;22.50;55.28;99109.73;25060;1313;3068161;-62
2022/09/01 06:58:12;;;;;;;10.50;5.70;;;;;;;22.55;55.31;99106.88;25100;1313;3026261;-65
2022/09/01 07:00:42;;;;;;;;;;;;;;;22.59;55.17;99109.61;25175;1315;3052560;-63
2022/09/01 07:03:12;;;;;;;14.80;6.00;;;;;;;22.39;55.64;99115.90;25164;1312;3026715;-61
2022/09/01 07:05:50;;;;;;;15.70;6.50;;;;;;;22.47;55.47;99112.84;25181;1313;3057478;-64
2022/09/01 07:08:22;;;;;;;16.40;7.60;;;;;;;22.59;55.02;99113.38;25059;1316;3027130;-64
2022/09/01 07:11:24;;;;;;;15.10;7.90;;;;;;;22.71;54.39;99115.15;24988;1313;3055596;-63
2022/09/01 07:13:56;;;;;;;22.30;7.80;;;;;;;22.68;54.40;99112.34;25133;1313;3026945;-63
2022/09/01 07:16:26;;;;;;;21.00;7.70;;;;;;;22.68;54.40;99107.15;25099;1316;3026851;-61
2022/09/01 07:18:57;;;;;;;11.40;6.40;;;;;;;22.63;54.38;99104.73;25155;1312;3029011;-63
2022/09/01 07:21:27;;;;;;;17.80;6.80;;;;;;;22.67;54.08;99101.27;25059;1313;3028729;-62
2022/09/01 07:24:00;;;;;;;15.30;5.20;;;;;;;22.72;54.30;99095.45;25137;1313;3026293;-62
2022/09/01 07:26:29;;;;;;;11.10;5.20;;;;;;;22.82;54.02;99093.21;25137;1313;3026985;-62
2022/09/01 07:28:59;;;;;;;12.10;5.60;;;;;;;22.92;53.98;99086.36;25094;1313;3026323;-62
2022/09/01 07:31:30;;;;;;;11.40;6.10;;;;;;;23.03;53.53;99087.19;25134;1312;3026440;-62
2022/09/01 07:34:03;;;;;;;8.60;4.80;;;;;;;23.07;53.19;99089.84;25115;1313;3055550;-63
2022/09/01 07:36:32;;;;;;;7.80;3.60;;;;;;;22.81;53.65;99090.16;25078;1313;3026392;-61
2022/09/01 07:39:02;;;;;;;12.30;3.80;;;;;;;22.60;53.84;99087.61;25167;1312;3027879;-62
2022/09/01 07:41:33;;;;;;;16.00;3.70;;;;;;;22.66;54.04;99090.23;25171;1313;3056218;-68
2022/09/01 07:44:18;;;;;;;7.60;3.50;;;;;;;22.86;53.44;99087.71;25077;1313;3052831;-61
2022/09/01 07:46:50;;;;;;;5.50;3.00;;;;;;;22.95;53.02;99089.38;25062;1316;3026204;-61
2022/09/01 07:49:20;;;;;;;6.10;3.10;;;;;;;23.01;52.70;99088.98;25051;1313;3056829;-63
2022/09/01 07:51:50;;;;;;;9.70;3.20;;;;;;;23.08;52.82;99087.14;25137;1313;3026395;-61
2022/09/01 07:54:22;;;;;;;10.70;3.30;;;;;;;23.17;52.28;99091.42;25076;1316;3053072;-62
2022/09/01 07:56:54;;;;;;;11.90;3.10;;;;;;;22.99;51.99;99092.86;25111;1313;3026498;-63
2022/09/01 07:59:26;;;;;;;6.00;2.80;;;;;;;22.99;52.24;99088.11;25098;1313;3026466;-64
2022/09/01 08:02:02;;;;;;;7.00;2.80;;;;;;;23.07;52.34;99090.96;25102;1313;3052911;-65
2022/09/01 08:04:33;;;;;;;5.90;2.60;;;;;;;23.32;51.88;99097.02;25089;1315;3026743;-63
2022/09/01 08:08:49;;;;;;;9.00;3.60;;;;;;;23.29;51.05;99100.38;31488;1318;3026355;-61
2022/09/01 08:11:23;;;;;;;8.40;3.40;;;;;;;23.42;51.25;99101.11;24945;1321;3026532;-61
2022/09/01 08:13:54;;;;;;;9.70;4.00;;;;;;;23.62;50.64;99095.62;24942;1318;3052529;-62
2022/09/01 08:16:25;;;;;;;8.20;3.20;;;;;;;23.38;51.08;99097.56;25060;1317;3026768;-61
2022/09/01 08:18:55;;;;;;;7.60;3.20;;;;;;;23.25;51.50;99095.90;25050;1316;3026787;-61
2022/09/01 08:21:34;;;;;;;7.60;3.20;;;;;;;23.11;51.65;99096.61;24399;1316;3053675;-61
2022/09/01 08:24:22;;;;;;;13.10;3.50;;;;;;;23.38;51.05;99086.39;25014;1313;3052763;-61
2022/09/01 08:26:51;;;;;;;7.10;2.90;;;;;;;23.54;50.30;99082.56;25072;1313;3026505;-61
2022/09/01 08:29:20;;;;;;;5.60;2.80;;;;;;;23.69;50.09;99079.33;25030;1315;3055096;-61
2022/09/01 08:31:49;;;;;;;5.30;2.60;;;;;;;23.78;50.08;99080.70;25095;1315;3028031;-61
2022/09/01 08:34:18;;;;;;;9.00;2.80;;;;;;;23.78;49.92;99080.02;25016;1314;3026654;-60
2022/09/01 08:36:48;;;;;;;7.50;2.70;;;;;;;23.94;49.65;99084.87;25039;1315;3055005;-62
2022/09/01 08:39:17;;;;;;;6.80;2.60;;;;;;;23.88;49.41;99078.07;25100;1315;3026307;-60
2022/09/01 08:42:03;;;;;;;5.50;2.40;;;;;;;23.71;49.50;99083.84;25087;1313;3050918;-62
2022/09/01 08:44:38;;;;;;;3.80;2.20;;;;;;;23.72;49.63;99081.17;25128;1313;3054157;-62
2022/09/01 08:47:08;;;;;;;;;;;;;;;23.91;49.41;99077.70;25107;1313;3053630;-62
2022/09/01 08:49:37;;;;;;;5.40;2.20;;;;;;;24.11;48.59;99072.15;25092;1313;3026462;-61
2022/09/01 08:52:21;;;;;;;6.40;2.80;;;;;;;24.33;47.75;99072.48;25106;1313;3026329;-60
2022/09/01 08:55:06;;;;;;;3.30;2.00;;;;;;;24.19;47.53;99070.73;25127;1313;3053701;-61
2022/09/01 08:57:41;;;;;;;4.70;1.90;;;;;;;24.14;47.69;99069.66;25128;1313;3055759;-61
2022/09/01 09:00:40;;;;;;;6.90;2.20;;;;;;;24.39;47.30;99064.58;25069;1313;3059081;-61
2022/09/01 09:03:19;;;;;;;2.90;1.80;;;;;;;24.32;46.89;99074.09;25101;1313;3052636;-61
2022/09/01 09:06:07;;;;;;;3.30;2.10;;;;;;;24.23;47.03;99075.02;25134;1313;3052936;-61
2022/09/01 09:09:02;;;;;;;6.40;1.90;;;;;;;24.03;47.26;99071.95;25087;1313;3053115;-61
2022/09/01 09:12:09;;;;;;;8.80;2.10;;;;;;;24.15;47.24;99066.03;25134;1313;3070080;-62
2022/09/01 09:14:50;;;;;;;3.20;1.60;;;;;;;24.35;47.20;99069.01;24916;1321;3049726;-61
2022/09/01 09:17:22;;;;;;;5.10;2.40;;;;;;;24.32;46.68;99076.55;25048;1314;3055214;-60
2022/09/01 09:19:51;;;;;;;4.50;1.90;;;;;;;24.18;46.51;99077.38;25035;1316;3029202;-59
2022/09/01 09:22:21;;;;;;;5.20;1.90;;;;;;;23.95;46.90;99082.05;25045;1315;3027829;-61
2022/09/01 09:25:13;;;;;;;5.40;1.90;;;;;;;23.87;47.20;99079.42;25019;1318;3053496;-61
2022/09/01 09:27:43;;;;;;;5.60;1.70;;;;;;;23.95;47.10;99073.29;25236;1318;3052752;-60
2022/09/01 09:30:22;;;;;;;4.60;1.60;;;;;;;24.11;46.63;99079.71;25162;1316;3026968;-63
2022/09/01 09:32:59;;;;;;;5.50;1.90;;;;;;;24.43;45.84;99071.59;25134;1313;3050677;-61
2022/09/01 09:35:33;;;;;;;4.90;2.00;;;;;;;24.78;45.05;99071.82;25070;1313;3055691;-62
2022/09/01 09:38:18;;;;;;;7.40;1.80;;;;;;;24.95;44.47;99075.02;25037;1315;3050498;-62
2022/09/01 09:41:05;;;;;;;5.00;1.60;;;;;;;25.12;43.86;99075.18;25055;1315;3071809;-59
2022/09/01 09:43:37;;;;;;;6.90;1.90;;;;;;;25.27;43.83;99071.86;25109;1318;3052231;-61
2022/09/01 09:46:36;;;;;;;6.10;2.10;;;;;;;25.37;43.23;99075.27;25122;1316;3026653;-61
2022/09/01 09:49:28;;;;;;;5.00;1.80;;;;;;;25.54;42.95;99073.05;25144;1316;3052993;-60
2022/09/01 09:52:00;;;;;;;3.80;2.10;;;;;;;25.81;42.23;99079.03;25052;1315;3059472;-60
2022/09/01 09:54:31;;;;;;;5.20;1.90;;;;;;;25.91;41.76;99084.27;25057;1313;3026492;-62
2022/09/01 09:57:10;;;;;;;7.50;2.30;;;;;;;25.92;41.26;99081.02;25056;1314;3026942;-62
2022/09/01 09:59:41;;;;;;;7.60;2.10;;;;;;;25.80;40.84;99080.98;25089;1313;3050610;-60
2022/09/01 10:02:30;;;;;;;5.80;2.20;;;;;;;25.91;41.04;99077.91;25040;1314;3027597;-60
2022/09/01 10:05:20;;;;;;;4.40;2.00;;;;;;;26.17;40.29;99076.09;25038;1315;3049327;-61
2022/09/01 10:07:49;;;;;;;3.50;1.50;;;;;;;26.06;39.63;99074.20;25115;1313;3052545;-62
2022/09/01 10:10:41;;;;;;;6.70;1.70;;;;;;;25.70;39.66;99078.66;25006;1318;3026789;-62
2022/09/01 10:13:18;;;;;;;8.70;2.20;;;;;;;25.51;39.66;99074.52;25107;1315;3057502;-60
2022/09/01 10:15:52;;;;;;;5.00;2.40;;;;;;;25.57;39.33;99078.15;25116;1315;3050546;-62
2022/09/01 10:18:24;;;;;;;6.50;2.10;;;;;;;25.70;39.36;99068.85;25077;1316;3054167;-61
2022/09/01 10:21:01;;;;;;;5.50;1.70;;;;;;;25.90;39.39;99061.67;25124;1315;3028319;-62
2022/09/01 10:23:33;;;;;;;5.50;1.70;;;;;;;25.88;38.90;99067.79;25014;1316;3069677;-60
2022/09/01 10:26:13;;;;;;;2.70;1.50;;;;;;;25.77;38.72;99067.52;25045;1316;3027467;-62
2022/09/01 10:28:56;;;;;;;2.90;1.60;;;;;;;25.71;38.75;99065.21;25070;1313;3055246;-62
2022/09/01 10:31:26;;;;;;;3.20;1.70;;;;;;;25.58;38.45;99067.77;25065;1314;3054746;-57
2022/09/01 10:33:55;;;;;;;4.70;1.60;;;;;;;25.40;38.84;99062.61;25156;1313;3026624;-60
2022/09/01 10:36:24;;;;;;;4.20;1.40;;;;;;;25.44;39.23;99059.10;25061;1318;3054645;-59
2022/09/01 10:38:53;;;;;;;3.80;1.60;;;;;;;25.55;39.40;99057.42;25099;1313;3026339;-60
2022/09/01 10:41:43;;;;;;;7.10;1.50;;;;;;;25.73;39.37;99053.19;25032;1315;3048753;-59
2022/09/01 10:44:22;;;;;;;6.90;2.10;;;;;;;25.88;39.09;99055.30;25082;1316;3052525;-59
2022/09/01 10:46:51;;;;;;;6.00;2.00;;;;;;;25.80;38.76;99055.17;25092;1315;3054801;-60
2022/09/01 10:49:26;;;;;;;6.40;2.10;;;;;;;25.52;38.74;99050.58;25111;1315;3026090;-60
2022/09/01 10:51:56;;;;;;;4.40;2.00;;;;;;;25.43;39.10;99048.14;25130;1313;3054696;-60
2022/09/01 10:54:37;;;;;;;4.90;1.40;;;;;;;25.58;39.36;99051.38;25097;1315;3026443;-58
2022/09/01 10:57:11;;;;;;;3.00;1.40;;;;;;;25.70;38.85;99052.09;25048;1315;3058858;-60
2022/09/01 10:59:41;;;;;;;2.80;1.50;;;;;;;25.71;38.55;99048.21;25074;1315;3049733;-59
2022/09/01 11:02:18;;;;;;;3.70;1.70;;;;;;;25.80;38.49;99049.23;25053;1315;3026735;-58
2022/09/01 11:04:47;;;;;;;2.90;1.60;;;;;;;25.61;38.86;99049.38;25077;1318;3059427;-58
2022/09/01 11:07:22;;;;;;;5.40;1.60;;;;;;;25.45;39.03;99047.86;25023;1315;3026880;-60
2022/09/01 11:10:32;;;;;;;3.10;1.50;;;;;;;25.44;38.91;99045.79;25063;1316;3051985;-60
2022/09/01 11:13:28;;;;;;;1.70;1.20;;;;;;;25.28;38.42;99050.91;25093;1315;3056368;-61
2022/09/01 11:16:27;;;;;;;3.90;1.30;;;;;;;25.05;38.41;99044.39;25044;1313;3050122;-59
2022/09/01 11:19:31;;;;;;;1.50;1.10;;;;;;;24.93;38.10;99044.61;25099;1313;3056214;-58
2022/09/01 11:22:10;;;;;;;3.40;1.80;;;;;;;25.09;37.79;99038.14;25028;1315;3050086;-59
2022/09/01 11:24:43;;;;;;;5.10;2.40;;;;;;;25.22;37.62;99035.67;25066;1313;3071799;-60
2022/09/01 11:28:02;;;;;;;5.00;2.10;;;;;;;25.22;37.12;99041.61;25040;1315;3027655;-60
2022/09/01 11:31:07;;;;;;;10.30;1.80;;;;;;;25.22;36.90;99036.18;25011;1318;3054180;-60
2022/09/01 11:33:47;;;;;;;2.50;1.60;;;;;;;25.31;36.85;99029.16;25086;1316;3055345;-61
2022/09/01 11:36:47;;;;;;;5.50;1.60;;;;;;;25.52;36.93;99028.57;25049;1315;3057136;-61
2022/09/01 11:39:17;;;;;;;6.30;1.50;;;;;;;25.79;36.28;99025.10;25087;1313;3052406;-59
2022/09/01 11:41:53;;;;;;;7.50;1.60;;;;;;;25.93;35.76;99020.29;25070;1313;3026554;-61
2022/09/01 11:44:26;;;;;;;3.10;1.10;;;;;;;26.04;35.56;99015.45;25061;1315;3059041;-61
2022/09/01 11:47:23;;;;;;;2.90;1.50;;;;;;;26.12;35.59;99018.45;25136;1315;3027973;-61
2022/09/01 11:49:55;;;;;;;4.00;2.40;;;;;;;25.82;35.40;99022.08;25055;1313;3053459;-63
2022/09/01 11:52:29;;;;;;;5.00;2.00;;;;;;;25.70;35.88;99025.81;25042;1313;3026131;-63
2022/09/01 11:54:58;;;;;;;3.70;1.80;;;;;;;25.60;35.69;99027.52;24996;1315;3070267;-61
2022/09/01 11:57:35;;;;;;;4.80;1.60;;;;;;;25.74;35.55;99025.61;25088;1313;3026524;-60
2022/09/01 12:00:09;;;;;;;5.90;1.80;;;;;;;25.95;35.37;99018.51;25040;1316;3053485;-61
2022/09/01 12:02:51;;;;;;;6.00;1.30;;;;;;;26.19;34.94;99014.44;25090;1315;3071610;-62
2022/09/01 12:05:33;;;;;;;2.60;1.50;;;;;;;26.30;34.48;99019.09;25052;1315;3049557;-63
2022/09/01 12:08:13;;;;;;;3.10;1.90;;;;;;;26.49;34.24;99007.56;25018;1313;3055013;-61
2022/09/01 12:10:44;;;;;;;8.40;1.80;;;;;;;26.56;34.16;99010.36;25073;1315;3053269;-60
2022/09/01 12:13:21;;;;;;;6.30;1.60;;;;;;;26.59;33.89;99008.05;25080;1315;3026321;-60
2022/09/01 12:16:01;;;;;;;4.70;1.80;;;;;;;26.70;33.52;99004.98;25066;1313;3048846;-61
2022/09/01 12:18:33;;;;;;;4.40;1.60;;;;;;;27.07;32.99;99006.58;25074;1313;3054842;-62
2022/09/01 12:21:06;;;;;;;3.90;1.70;;;;;;;27.40;32.27;99006.25;25132;1313;3026789;-61
2022/09/01 12:23:39;;;;;;;4.70;1.70;;;;;;;27.36;31.96;99011.60;25071;1314;3027141;-62
2022/09/01 12:26:13;;;;;;;2.90;1.90;;;;;;;26.95;31.51;99009.14;25103;1313;3027658;-60
2022/09/01 12:28:50;;;;;;;5.30;1.80;;;;;;;26.56;32.11;99008.43;25078;1313;3054727;-61
2022/09/01 12:31:23;;;;;;;6.80;1.90;;;;;;;26.44;32.48;99003.00;25087;1315;3053081;-61
2022/09/01 12:33:53;;;;;;;4.20;1.80;;;;;;;26.57;32.27;98997.33;25062;1313;3026146;-61
2022/09/01 12:36:26;;;;;;;3.20;1.50;;;;;;;26.31;32.35;98997.66;25058;1313;3027902;-62
2022/09/01 12:39:16;;;;;;;4.30;1.80;;;;;;;26.27;32.38;98996.05;25136;1313;3027119;-61
2022/09/01 12:42:18;;;;;;;3.00;1.60;;;;;;;26.03;32.78;99000.32;25028;1315;3054125;-61
2022/09/01 12:45:06;;;;;;;12.50;2.60;;;;;;;26.36;32.37;98993.77;25097;1313;3070694;-59
2022/09/01 12:47:36;;;;;;;4.60;2.00;;;;;;;26.10;32.25;99003.27;25085;1313;3049348;-61
2022/09/01 12:50:07;;;;;;;9.10;3.10;;;;;;;25.95;32.86;98995.03;25097;1313;3026672;-60
2022/09/01 12:52:46;;;;;;;6.80;2.90;;;;;;;26.20;32.55;98998.48;25082;1315;3027050;-59
2022/09/01 12:55:18;;;;;;;8.60;2.60;;;;;;;26.27;31.99;98996.01;25105;1313;3059377;-60
2022/09/01 12:57:50;;;;;;;4.10;2.20;;;;;;;26.42;32.20;98994.88;25127;1316;3026965;-62
2022/09/01 13:00:22;;;;;;;3.40;2.20;;;;;;;26.75;31.57;98996.36;25155;1313;3026729;-60
2022/09/01 13:03:20;;;;;;;3.50;2.10;;;;;;;26.83;31.25;98990.98;25115;1313;3026542;-61
2022/09/01 13:05:53;;;;;;;5.10;2.10;;;;;;;26.71;30.99;98993.95;25113;1315;3069708;-63
2022/09/01 13:08:25;;;;;;;3.80;1.90;;;;;;;26.73;30.96;98996.45;25043;1314;3028683;-62
2022/09/01 13:10:56;;;;;;;4.00;1.70;;;;;;;26.90;31.00;98993.98;25085;1313;3026545;-62
2022/09/01 13:13:25;;;;;;;8.10;1.90;;;;;;;26.90;31.13;98995.96;25099;1313;3026869;-61
2022/09/01 13:15:58;;;;;;;11.00;1.90;;;;;;;26.79;31.43;98998.27;25065;1313;3026545;-62
2022/09/01 13:18:28;;;;;;;4.70;2.00;;;;;;;26.91;31.38;98997.13;25073;1313;3026896;-62
2022/09/01 13:20:57;;;;;;;4.90;2.10;;;;;;;27.02;31.34;98999.29;25199;1315;3027355;-61
2022/09/01 13:23:27;;;;;;;6.70;2.00;;;;;;;27.06;31.15;98997.63;25085;1315;3026457;-62
2022/09/01 13:25:57;;;;;;;5.00;2.10;;;;;;;26.98;30.90;99003.90;25047;1315;3029029;-62
2022/09/01 13:28:26;;;;;;;3.40;1.90;;;;;;;26.89;30.80;98997.67;25073;1313;3055417;-60
2022/09/01 13:31:04;;;;;;;4.80;2.40;;;;;;;26.78;31.18;98996.91;25042;1313;3027468;-59
2022/09/01 13:33:33;;;;;;;7.10;2.10;;;;;;;26.92;31.20;98996.25;25125;1313;3068245;-59
2022/09/01 13:36:03;;;;;;;3.60;1.70;;;;;;;27.06;30.89;98997.33;25035;1315;3027993;-60
2022/09/01 13:38:32;;;;;;;5.00;2.40;;;;;;;27.19;30.76;98993.02;25034;1313;3026890;-61
2022/09/01 13:41:01;;;;;;;3.90;1.60;;;;;;;27.20;30.73;98996.84;25082;1313;3027034;-62
2022/09/01 13:43:30;;;;;;;5.00;1.90;;;;;;;27.05;30.78;98990.79;25099;1315;3051593;-64
2022/09/01 13:45:59;;;;;;;4.80;2.50;;;;;;;27.08;30.96;98993.42;25075;1315;3026550;-61
2022/09/01 13:48:29;;;;;;;6.80;1.40;;;;;;;27.12;30.82;99002.25;25084;1313;3070416;-61
2022/09/01 13:50:58;;;;;;;8.50;1.90;;;;;;;27.17;30.86;98997.64;25052;1313;3028780;-60
2022/09/01 13:53:27;;;;;;;5.20;1.50;;;;;;;27.04;31.39;99000.15;25154;1313;3054817;-60
2022/09/01 13:55:56;;;;;;;3.00;1.60;;;;;;;27.00;31.02;99010.91;25048;1313;3026847;-60
2022/09/01 13:58:25;;;;;;;6.10;1.50;;;;;;;26.97;30.96;99009.42;25121;1315;3054764;-61
2022/09/01 14:00:56;;;;;;;4.30;1.60;;;;;;;26.92;31.33;99011.18;25047;1313;3026514;-60
2022/09/01 14:03:25;;;;;;;4.50;1.30;;;;;;;26.96;31.21;99009.14;25125;1313;3049506;-62
2022/09/01 14:05:54;;;;;;;4.00;1.60;;;;;;;26.77;31.44;99015.45;25019;1315;3026553;-59
2022/09/01 14:08:23;;;;;;;4.60;1.70;;;;;;;26.60;31.50;99023.67;25108;1313;3055951;-57
2022/09/01 14:10:52;;;;;;;5.60;1.70;;;;;;;26.58;31.55;99022.85;25058;1313;3027244;-61
2022/09/01 14:13:22;;;;;;;3.70;1.70;;;;;;;26.67;31.47;99022.09;25094;1314;3027114;-62
2022/09/01 14:15:53;;;;;;;7.60;2.20;;;;;;;26.67;31.57;99023.31;25134;1315;3057372;-61
2022/09/01 14:18:22;;;;;;;14.00;2.20;;;;;;;26.77;31.50;99025.38;25034;1315;3026553;-60
2022/09/01 14:20:51;;;;;;;5.10;2.30;;;;;;;26.91;31.53;99028.39;25051;1315;3052123;-59
2022/09/01 14:23:20;;;;;;;5.10;2.00;;;;;;;26.92;31.20;99031.91;25045;1313;3027317;-60
2022/09/01 14:25:50;;;;;;;7.80;2.20;;;;;;;26.84;31.23;99034.20;25071;1315;3054600;-59
2022/09/01 14:28:19;;;;;;;4.60;2.10;;;;;;;26.57;31.16;99038.20;25163;1313;3027436;-60
2022/09/01 14:30:49;;;;;;;7.10;2.20;;;;;;;26.23;31.55;99042.13;25011;1315;3026773;-62
2022/09/01 14:33:19;;;;;;;8.60;2.00;;;;;;;26.11;31.81;99048.63;25011;1315;3026557;-60
2022/09/01 14:35:48;;;;;;;6.60;2.20;;;;;;;26.27;31.38;99048.23;25079;1313;3026877;-60
2022/09/01 14:38:18;;;;;;;5.30;2.40;;;;;;;26.14;31.12;99052.08;25023;1313;3026597;-59
2022/09/01 14:40:47;;;;;;;4.40;2.20;;;;;;;26.06;31.51;99054.94;25105;1315;3026763;-58
2022/09/01 14:43:16;;;;;;;5.40;2.30;;;;;;;26.04;31.56;99060.65;25069;1316;3055404;-61
2022/09/01 14:45:47;;;;;;;4.80;2.40;;;;;;;25.79;32.16;99066.04;25161;1313;3026595;-61
2022/09/01 14:48:16;;;;;;;6.50;2.50;;;;;;;25.42;32.69;99063.94;25028;1313;3026529;-60
2022/09/01 14:50:47;;;;;;;6.90;2.50;;;;;;;25.28;32.95;99063.30;25103;1313;3026740;-61
2022/09/01 14:53:17;;;;;;;4.10;1.90;;;;;;;25.08;33.39;99071.50;25049;1315;3027099;-61
2022/09/01 14:55:46;;;;;;;8.50;2.30;;;;;;;24.57;33.94;99070.27;25079;1316;3026489;-62
2022/09/01 14:58:15;;;;;;;5.00;1.90;;;;;;;24.30;34.30;99071.71;25141;1313;3026675;-60
2022/09/01 15:00:46;;;;;;;8.00;1.90;;;;;;;24.11;34.80;99075.04;25080;1313;3054435;-61
2022/09/01 15:03:15;;;;;;;5.90;2.20;;;;;;;24.01;35.07;99078.64;25468;1313;3026472;-62
2022/09/01 15:05:44;;;;;;;9.80;2.20;;;;;;;23.88;35.30;99078.82;25341;1313;3026756;-62
2022/09/01 15:08:13;;;;;;;8.20;2.30;;;;;;;23.79;35.37;99084.64;25126;1313;3054144;-59